Time;durP1;ratioP1;P1;durP2;ratioP2;P2;SDS_P1;SDS_P2;PMS_P1;PMS_P2;Temp;Humidity;BMP_temperature;BMP_pressure;BME280_temperature;BME280_humidity;BME280_pressure;Samples;Min_cycle;Max_cycle;Signal;HPM_P1;HPM_P2
2023/06/15 00:02:20;;;;;;;7.60;5.90;;;22.40;49.70;;;;;;6264122;22;20182;-66
2023/06/15 00:04:46;;;;;;;7.93;6.40;;;22.40;49.80;;;;;;6262513;22;20344;-66
2023/06/15 00:07:11;;;;;;;7.27;6.57;;;22.30;49.90;;;;;;6264741;22;20487;-67
2023/06/15 00:09:37;;;;;;;6.50;5.90;;;22.30;50.00;;;;;;6262217;22;20178;-66
2023/06/15 00:12:03;;;;;;;6.67;6.07;;;22.30;50.40;;;;;;6265456;22;20147;-66
2023/06/15 00:14:29;;;;;;;6.10;5.57;;;22.20;50.50;;;;;;6266122;22;20269;-67
2023/06/15 00:16:55;;;;;;;7.00;6.40;;;22.20;50.70;;;;;;6264049;22;20154;-66
2023/06/15 00:19:21;;;;;;;7.77;6.40;;;22.10;50.70;;;;;;6266550;22;20743;-66
2023/06/15 00:21:48;;;;;;;6.87;6.27;;;22.10;50.90;;;;;;6264355;22;20190;-67
2023/06/15 00:24:16;;;;;;;6.10;5.50;;;22.10;50.90;;;;;;6265810;22;20380;-66
2023/06/15 00:26:43;;;;;;;7.40;6.70;;;22.10;50.80;;;;;;6265399;22;20491;-66
2023/06/15 00:29:10;;;;;;;8.40;6.20;;;22.00;50.90;;;;;;6264424;22;20447;-66
2023/06/15 00:31:35;;;;;;;6.47;5.87;;;22.00;51.00;;;;;;6265829;22;20517;-66
2023/06/15 00:34:01;;;;;;;15.93;6.27;;;21.90;51.10;;;;;;6264998;22;20757;-66
2023/06/15 00:36:27;;;;;;;6.40;5.80;;;21.90;51.20;;;;;;6263832;22;20180;-66
2023/06/15 00:38:53;;;;;;;7.57;6.70;;;21.90;51.30;;;;;;6264549;22;20419;-66
2023/06/15 00:41:18;;;;;;;7.03;6.33;;;21.90;51.50;;;;;;6266009;22;20147;-66
2023/06/15 00:43:44;;;;;;;6.63;5.90;;;21.90;51.60;;;;;;6265724;22;20545;-66
2023/06/15 00:46:10;;;;;;;6.47;5.87;;;21.80;51.50;;;;;;6264087;22;20158;-66
2023/06/15 00:48:36;;;;;;;9.60;5.67;;;21.80;51.80;;;;;;6264275;22;20170;-66
2023/06/15 00:51:03;;;;;;;9.10;6.60;;;21.80;51.80;;;;;;6263609;22;20427;-66
2023/06/15 00:53:29;;;;;;;6.50;5.70;;;21.80;51.70;;;;;;6262931;22;20261;-66
2023/06/15 00:55:55;;;;;;;6.10;5.50;;;21.80;51.80;;;;;;6266479;22;21267;-66
2023/06/15 00:58:21;;;;;;;7.13;6.53;;;21.80;51.90;;;;;;6267142;22;20484;-66
2023/06/15 01:00:48;;;;;;;6.23;5.63;;;21.70;52.00;;;;;;6266946;22;20458;-65
2023/06/15 01:03:20;;;;;;;6.60;5.63;;;21.70;52.10;;;;;;6266674;22;20304;-66
2023/06/15 01:05:52;;;;;;;5.97;5.47;;;21.70;52.10;;;;;;6266147;22;20844;-66
2023/06/15 01:08:20;;;;;;;6.33;5.73;;;21.70;52.10;;;;;;6264425;22;20403;-66
2023/06/15 01:10:47;;;;;;;7.13;6.00;;;21.70;52.30;;;;;;6267587;22;20416;-66
2023/06/15 01:13:13;;;;;;;6.10;5.60;;;21.70;52.50;;;;;;6266287;22;20362;-66
2023/06/15 01:15:40;;;;;;;5.90;5.37;;;21.70;52.30;;;;;;6266947;22;20370;-66
2023/06/15 01:18:07;;;;;;;6.43;5.83;;;21.70;52.30;;;;;;6265600;22;20393;-66
2023/06/15 01:20:39;;;;;;;8.20;6.03;;;21.70;52.50;;;;;;6264847;22;20734;-65
2023/06/15 01:23:40;;;;;;;6.30;5.77;;;21.70;52.50;;;;;;6265004;22;20882;-66
2023/06/15 01:26:09;;;;;;;5.77;5.27;;;21.60;52.60;;;;;;6265689;22;20372;-66
2023/06/15 01:28:40;;;;;;;6.07;5.57;;;21.60;52.60;;;;;;6266728;22;20416;-66
2023/06/15 01:31:06;;;;;;;6.17;5.57;;;21.60;52.60;;;;;;6266652;22;20411;-66
2023/06/15 01:33:32;;;;;;;6.47;5.90;;;21.50;52.60;;;;;;6265473;22;20488;-66
2023/06/15 01:35:58;;;;;;;6.00;5.50;;;21.50;52.60;;;;;;6265493;22;20870;-66
2023/06/15 01:38:27;;;;;;;6.00;5.40;;;21.50;52.60;;;;;;6265867;22;20189;-66
2023/06/15 01:40:55;;;;;;;7.87;5.43;;;21.50;52.60;;;;;;6266398;22;20408;-66
2023/06/15 01:43:24;;;;;;;4.90;4.50;;;21.50;52.70;;;;;;6266369;22;20380;-66
2023/06/15 01:45:51;;;;;;;6.37;5.77;;;21.50;52.70;;;;;;6265631;22;20448;-66
2023/06/15 01:48:18;;;;;;;6.13;5.53;;;21.40;52.60;;;;;;6264357;22;20727;-66
2023/06/15 01:50:43;;;;;;;5.70;5.20;;;21.50;52.60;;;;;;6237204;22;20432;-66
2023/06/15 01:53:09;;;;;;;5.73;5.23;;;21.50;52.60;;;;;;6238881;22;20385;-66
2023/06/15 01:55:35;;;;;;;5.40;5.00;;;21.50;52.60;;;;;;6266223;22;20151;-66
2023/06/15 01:58:01;;;;;;;5.80;5.30;;;21.50;52.60;;;;;;6265359;22;20170;-66
2023/06/15 02:00:27;;;;;;;5.93;5.43;;;21.50;52.60;;;;;;6236291;22;20247;-66
2023/06/15 02:02:53;;;;;;;5.33;4.83;;;21.40;52.60;;;;;;6265546;22;20143;-66
2023/06/15 02:05:19;;;;;;;5.53;5.03;;;21.40;52.70;;;;;;6264187;22;20840;-66
2023/06/15 02:07:45;;;;;;;8.73;6.40;;;21.40;52.70;;;;;;6265722;22;20203;-66
2023/06/15 02:10:10;;;;;;;6.73;6.13;;;21.30;52.70;;;;;;6264662;22;20782;-66
2023/06/15 02:12:36;;;;;;;5.80;5.30;;;21.30;52.70;;;;;;6266186;22;20143;-66
2023/06/15 02:15:02;;;;;;;6.03;5.43;;;21.30;53.40;;;;;;6263333;22;20374;-66
2023/06/15 02:17:32;;;;;;;7.20;5.10;;;21.30;52.90;;;;;;6263756;22;20154;-65
2023/06/15 02:19:57;;;;;;;5.77;5.27;;;21.30;52.90;;;;;;6265703;22;20373;-66
2023/06/15 02:22:23;;;;;;;6.03;5.53;;;21.30;52.80;;;;;;6264864;22;20892;-66
2023/06/15 02:24:49;;;;;;;6.50;5.90;;;21.30;52.80;;;;;;6266752;22;20154;-66
2023/06/15 02:27:15;;;;;;;8.63;6.30;;;21.30;52.80;;;;;;6266705;22;20174;-66
2023/06/15 02:29:41;;;;;;;6.43;5.80;;;21.20;52.80;;;;;;6238135;22;20428;-66
2023/06/15 02:32:07;;;;;;;5.87;5.37;;;21.20;52.90;;;;;;6265438;22;20357;-66
2023/06/15 02:34:33;;;;;;;5.90;5.30;;;21.10;53.10;;;;;;6262883;22;20423;-66
2023/06/15 02:36:58;;;;;;;6.33;5.83;;;21.10;53.20;;;;;;6262815;22;20234;-65
2023/06/15 02:39:24;;;;;;;5.90;5.13;;;21.00;53.20;;;;;;6266144;22;20736;-66
2023/06/15 02:41:50;;;;;;;5.77;5.23;;;21.00;53.40;;;;;;6266080;22;20158;-66
2023/06/15 02:44:15;;;;;;;6.20;5.60;;;21.00;53.30;;;;;;6265487;22;20150;-66
2023/06/15 02:46:42;;;;;;;6.23;5.40;;;20.90;53.40;;;;;;6264841;22;20241;-66
2023/06/15 02:49:08;;;;;;;5.20;4.70;;;20.90;53.40;;;;;;6265081;22;20174;-66
2023/06/15 02:51:34;;;;;;;6.77;5.47;;;20.90;53.40;;;;;;6263703;22;20435;-66
2023/06/15 02:54:00;;;;;;;5.83;5.33;;;20.90;53.50;;;;;;6265048;22;20544;-65
2023/06/15 02:56:29;;;;;;;5.87;5.37;;;20.90;53.50;;;;;;6266072;22;20385;-66
2023/06/15 02:58:54;;;;;;;6.93;6.23;;;20.80;53.60;;;;;;6265402;22;20665;-66
2023/06/15 03:01:21;;;;;;;5.50;5.00;;;20.80;53.60;;;;;;6237887;22;20444;-65
2023/06/15 03:03:47;;;;;;;5.87;5.37;;;20.80;53.60;;;;;;6265111;22;20512;-66
2023/06/15 03:06:14;;;;;;;5.87;5.33;;;20.80;53.70;;;;;;6265016;22;20384;-66
2023/06/15 03:08:40;;;;;;;6.43;5.93;;;20.80;53.70;;;;;;6265642;22;20399;-66
2023/06/15 03:11:06;;;;;;;6.40;5.80;;;20.70;54.40;;;;;;6265657;22;20361;-66
2023/06/15 03:13:32;;;;;;;5.70;5.20;;;20.70;53.80;;;;;;6266385;22;20769;-66
2023/06/15 03:16:01;;;;;;;5.80;5.30;;;20.70;53.90;;;;;;6263873;22;20568;-65
2023/06/15 03:18:30;;;;;;;6.60;6.00;;;20.70;53.90;;;;;;6263582;22;20404;-66
2023/06/15 03:20:57;;;;;;;6.33;5.83;;;20.70;53.90;;;;;;6263335;22;20374;-65
2023/06/15 03:23:23;;;;;;;6.93;6.23;;;20.70;54.00;;;;;;6264540;22;20683;-66
2023/06/15 03:25:52;;;;;;;7.00;5.47;;;20.70;54.00;;;;;;6265582;22;21035;-65
2023/06/15 03:28:27;;;;;;;10.50;5.50;;;20.60;54.00;;;;;;6264234;22;20864;-66
2023/06/15 03:30:53;;;;;;;6.27;5.67;;;20.60;54.10;;;;;;6265873;22;20405;-66
2023/06/15 03:33:21;;;;;;;6.03;5.53;;;20.60;54.20;;;;;;6265856;22;20826;-66
2023/06/15 03:35:48;;;;;;;6.30;5.67;;;20.50;54.30;;;;;;6266470;22;20369;-66
2023/06/15 03:38:15;;;;;;;6.07;5.57;;;20.50;54.30;;;;;;6264515;22;20404;-66
2023/06/15 03:40:42;;;;;;;8.17;5.57;;;20.50;54.30;;;;;;6266075;22;20377;-66
2023/06/15 03:43:11;;;;;;;6.10;5.60;;;20.50;54.40;;;;;;6265014;22;20860;-66
2023/06/15 03:45:37;;;;;;;5.63;5.13;;;20.40;54.50;;;;;;6265877;22;20384;-66
2023/06/15 03:48:03;;;;;;;5.90;5.40;;;20.40;54.50;;;;;;6265077;22;20480;-66
2023/06/15 03:50:29;;;;;;;6.20;5.53;;;20.40;54.60;;;;;;6265998;22;20423;-66
2023/06/15 03:52:54;;;;;;;7.73;5.77;;;20.30;54.80;;;;;;6264262;22;20389;-66
2023/06/15 03:55:20;;;;;;;6.47;5.70;;;20.30;55.00;;;;;;6264899;22;20182;-66
2023/06/15 03:57:47;;;;;;;6.47;5.87;;;20.30;55.00;;;;;;6264889;22;20166;-66
2023/06/15 04:00:12;;;;;;;6.40;5.80;;;20.30;55.00;;;;;;6264770;22;20491;-66
2023/06/15 04:02:38;;;;;;;7.50;5.57;;;20.30;55.00;;;;;;6264401;22;20374;-66
2023/06/15 04:05:05;;;;;;;6.43;5.83;;;20.30;55.20;;;;;;6264486;22;20466;-66
2023/06/15 04:07:31;;;;;;;5.67;5.17;;;20.30;55.20;;;;;;6237085;22;20162;-66
2023/06/15 04:09:56;;;;;;;6.83;6.13;;;20.20;55.40;;;;;;6264577;22;20803;-66
2023/06/15 04:12:22;;;;;;;9.90;5.70;;;20.20;55.20;;;;;;6264650;22;20151;-66
2023/06/15 04:14:48;;;;;;;5.30;4.90;;;20.20;55.20;;;;;;6265175;22;20146;-66
2023/06/15 04:17:13;;;;;;;6.00;5.50;;;20.30;55.30;;;;;;6263649;22;20355;-66
2023/06/15 04:19:39;;;;;;;6.10;5.60;;;20.20;55.20;;;;;;6264207;22;20243;-66
2023/06/15 04:22:05;;;;;;;6.07;5.47;;;20.20;55.40;;;;;;6262497;22;20174;-66
2023/06/15 04:24:31;;;;;;;8.80;5.97;;;20.20;55.30;;;;;;6264240;22;20649;-66
2023/06/15 04:26:57;;;;;;;7.53;5.90;;;20.20;55.30;;;;;;6265159;22;20414;-66
2023/06/15 04:29:23;;;;;;;5.90;5.40;;;20.20;55.30;;;;;;6265398;22;20417;-66
2023/06/15 04:31:54;;;;;;;6.70;6.00;;;20.20;55.40;;;;;;6266836;22;20482;-66
2023/06/15 04:34:22;;;;;;;6.10;5.20;;;20.20;55.50;;;;;;6267104;22;20139;-66
2023/06/15 04:36:49;;;;;;;6.43;5.93;;;20.20;55.50;;;;;;6267517;22;20848;-65
2023/06/15 04:39:14;;;;;;;9.73;6.20;;;20.30;55.50;;;;;;6265430;22;20393;-65
2023/06/15 04:41:40;;;;;;;7.17;6.47;;;20.30;55.60;;;;;;6267690;22;20624;-65
2023/06/15 04:44:06;;;;;;;7.17;6.40;;;20.30;55.70;;;;;;6266662;22;20258;-65
2023/06/15 04:46:32;;;;;;;7.00;6.30;;;20.20;55.70;;;;;;6267173;22;20185;-66
2023/06/15 04:49:00;;;;;;;6.77;6.10;;;20.20;55.90;;;;;;6266663;22;20595;-65
2023/06/15 04:51:26;;;;;;;6.67;6.07;;;20.20;56.10;;;;;;6266567;22;20151;-65
2023/06/15 04:53:51;;;;;;;7.40;6.70;;;20.20;56.30;;;;;;6265151;22;20365;-65
2023/06/15 04:56:17;;;;;;;6.70;6.10;;;20.20;56.30;;;;;;6266758;22;20151;-66
2023/06/15 04:58:42;;;;;;;6.97;6.37;;;20.20;56.50;;;;;;6265625;22;20520;-65
2023/06/15 05:01:08;;;;;;;6.37;5.87;;;20.20;56.50;;;;;;6238252;22;20586;-66
2023/06/15 05:03:34;;;;;;;6.50;6.00;;;20.20;56.50;;;;;;6265749;22;20149;-66
2023/06/15 05:05:59;;;;;;;6.00;5.40;;;20.20;56.50;;;;;;6241150;22;20165;-66
2023/06/15 05:08:26;;;;;;;6.00;5.50;;;20.20;56.60;;;;;;6266353;22;20688;-65
2023/06/15 05:10:51;;;;;;;7.17;6.50;;;20.10;57.00;;;;;;6267392;22;20523;-66
2023/06/15 05:13:17;;;;;;;6.53;5.93;;;20.20;57.00;;;;;;6267145;22;20380;-66
2023/06/15 05:15:42;;;;;;;5.97;5.47;;;20.20;57.60;;;;;;6267948;22;20360;-65
2023/06/15 05:18:08;;;;;;;8.23;5.73;;;20.20;57.00;;;;;;6266687;22;20293;-66
2023/06/15 05:20:33;;;;;;;6.93;6.33;;;20.30;57.00;;;;;;6265245;22;20530;-66
2023/06/15 05:22:59;;;;;;;6.33;5.73;;;20.40;56.90;;;;;;6266241;22;20193;-65
2023/06/15 05:25:25;;;;;;;6.30;5.80;;;20.40;56.90;;;;;;6266646;22;20150;-66
2023/06/15 05:27:50;;;;;;;7.80;5.53;;;20.40;57.10;;;;;;6264967;22;20178;-66
2023/06/15 05:30:16;;;;;;;7.63;5.80;;;20.50;57.40;;;;;;6265645;22;20185;-66
2023/06/15 05:32:42;;;;;;;6.20;5.70;;;20.60;57.20;;;;;;6266177;22;20199;-66
2023/06/15 05:35:08;;;;;;;8.37;5.63;;;20.60;57.10;;;;;;6266789;22;20665;-66
2023/06/15 05:37:34;;;;;;;6.03;5.53;;;20.70;57.00;;;;;;6264542;22;20221;-66
2023/06/15 05:40:01;;;;;;;5.87;5.37;;;20.70;56.70;;;;;;6262037;22;20480;-66
2023/06/15 05:42:28;;;;;;;7.93;5.77;;;20.80;57.10;;;;;;6264659;22;20385;-65
2023/06/15 05:44:53;;;;;;;7.20;6.50;;;20.80;56.30;;;;;;6265852;22;20369;-66
2023/06/15 05:47:19;;;;;;;5.97;5.47;;;20.80;56.20;;;;;;6258596;22;20377;-66
2023/06/15 05:49:45;;;;;;;6.20;5.60;;;20.80;56.20;;;;;;6262661;22;20174;-65
2023/06/15 05:52:10;;;;;;;7.63;6.40;;;20.90;56.20;;;;;;6266014;22;20155;-65
2023/06/15 05:54:36;;;;;;;7.03;6.43;;;20.90;56.20;;;;;;6266775;22;20147;-66
2023/06/15 05:57:03;;;;;;;7.40;6.80;;;20.90;56.00;;;;;;6266414;22;20150;-66
2023/06/15 05:59:28;;;;;;;6.07;5.57;;;20.90;56.10;;;;;;6265022;22;20170;-65
2023/06/15 06:01:54;;;;;;;7.73;6.10;;;20.90;56.50;;;;;;6266185;22;20530;-66
2023/06/15 06:04:20;;;;;;;6.77;5.37;;;20.80;56.30;;;;;;6266712;22;20228;-65
2023/06/15 06:06:46;;;;;;;6.33;5.23;;;20.80;56.30;;;;;;6263082;22;20373;-66
2023/06/15 06:09:12;;;;;;;6.70;6.10;;;20.70;56.30;;;;;;6259432;22;20645;-65
2023/06/15 06:11:37;;;;;;;6.30;5.30;;;20.80;56.60;;;;;;6264278;22;20397;-65
2023/06/15 06:14:03;;;;;;;6.63;5.70;;;20.70;56.40;;;;;;6260209;22;20147;-66
2023/06/15 06:16:28;;;;;;;6.10;5.50;;;20.70;56.50;;;;;;6264951;22;20153;-65
2023/06/15 06:18:55;;;;;;;7.20;6.07;;;20.70;56.60;;;;;;6264313;22;20174;-66
2023/06/15 06:21:20;;;;;;;10.30;6.10;;;20.70;56.70;;;;;;6263323;22;20544;-66
2023/06/15 06:23:46;;;;;;;6.00;5.40;;;20.80;56.80;;;;;;6264197;22;20373;-66
2023/06/15 06:26:12;;;;;;;6.47;5.47;;;20.80;56.80;;;;;;6265930;22;20143;-65
2023/06/15 06:28:37;;;;;;;6.33;5.63;;;20.70;56.80;;;;;;6261011;22;20167;-65
2023/06/15 06:31:03;;;;;;;6.60;5.70;;;20.70;57.00;;;;;;6263665;22;20614;-65
2023/06/15 06:33:29;;;;;;;6.90;6.30;;;20.80;57.00;;;;;;6264432;22;20594;-65
2023/06/15 06:35:54;;;;;;;6.87;6.03;;;20.80;56.70;;;;;;6266341;22;20545;-65
2023/06/15 06:38:20;;;;;;;7.83;7.00;;;20.80;56.90;;;;;;6265345;22;20170;-65
2023/06/15 06:40:46;;;;;;;9.20;7.23;;;20.80;56.90;;;;;;6264314;22;20238;-65
2023/06/15 06:43:11;;;;;;;6.83;6.23;;;20.80;57.00;;;;;;6265464;22;20150;-65
2023/06/15 06:45:37;;;;;;;7.47;6.73;;;20.90;56.90;;;;;;6259355;22;20691;-66
2023/06/15 06:48:02;;;;;;;11.20;10.07;;;20.90;56.80;;;;;;6262933;22;20182;-66
2023/06/15 06:50:28;;;;;;;8.17;6.50;;;20.90;56.60;;;;;;6262727;22;20182;-66
2023/06/15 06:52:54;;;;;;;10.23;8.17;;;20.90;56.70;;;;;;6234242;22;20146;-66
2023/06/15 06:55:19;;;;;;;7.37;6.67;;;20.90;56.70;;;;;;6264889;22;20150;-66
2023/06/15 06:57:45;;;;;;;7.27;6.57;;;21.00;56.80;;;;;;6265992;22;20167;-66
2023/06/15 07:00:11;;;;;;;7.73;6.93;;;21.00;56.60;;;;;;6265474;22;20158;-66
2023/06/15 07:02:36;;;;;;;7.60;6.80;;;21.10;56.70;;;;;;6264988;22;20224;-66
2023/06/15 07:05:02;;;;;;;14.03;11.50;;;21.20;56.70;;;;;;6265543;22;20374;-67
2023/06/15 07:07:27;;;;;;;8.33;6.50;;;21.20;56.50;;;;;;6264984;22;20159;-66
2023/06/15 07:09:53;;;;;;;7.63;6.40;;;21.20;56.70;;;;;;6262855;22;20464;-66
2023/06/15 07:12:19;;;;;;;8.00;6.50;;;21.30;56.70;;;;;;6265489;22;20233;-67
2023/06/15 07:14:44;;;;;;;13.80;12.53;;;21.30;56.70;;;;;;6265303;22;20154;-66
2023/06/15 07:17:10;;;;;;;12.47;11.27;;;21.40;56.70;;;;;;6265617;22;20158;-66
2023/06/15 07:19:35;;;;;;;7.50;6.80;;;21.40;56.90;;;;;;6263758;22;20202;-66
2023/06/15 07:22:01;;;;;;;8.37;6.30;;;21.50;56.90;;;;;;6263965;22;20155;-66
2023/06/15 07:24:27;;;;;;;7.50;6.80;;;21.50;56.50;;;;;;6265225;22;20469;-66
2023/06/15 07:26:53;;;;;;;7.80;7.07;;;21.50;56.70;;;;;;6265852;22;20625;-66
2023/06/15 07:29:18;;;;;;;5.93;5.43;;;21.60;56.60;;;;;;6264686;22;20504;-66
2023/06/15 07:31:46;;;;;;;7.37;6.40;;;21.60;56.30;;;;;;6237021;22;20147;-66
2023/06/15 07:34:11;;;;;;;7.13;6.47;;;21.70;56.20;;;;;;6237604;22;20166;-65
2023/06/15 07:36:37;;;;;;;6.17;5.67;;;21.70;56.20;;;;;;6265848;22;20733;-66
2023/06/15 07:39:03;;;;;;;6.33;5.80;;;21.70;56.30;;;;;;6263934;22;20163;-66
2023/06/15 07:41:28;;;;;;;7.10;6.47;;;21.80;56.30;;;;;;6264254;22;20373;-66
2023/06/15 07:43:54;;;;;;;6.63;5.90;;;21.90;56.30;;;;;;6263217;22;20146;-66
2023/06/15 07:46:20;;;;;;;6.30;5.80;;;21.90;56.30;;;;;;6263808;22;20162;-66
2023/06/15 07:48:46;;;;;;;7.17;6.57;;;22.00;56.30;;;;;;6264850;22;20166;-67
2023/06/15 07:51:11;;;;;;;8.03;6.80;;;22.00;56.30;;;;;;6264549;22;20405;-66
2023/06/15 07:53:38;;;;;;;7.30;6.60;;;22.10;56.20;;;;;;6265198;22;20204;-66
2023/06/15 07:56:04;;;;;;;9.90;9.00;;;22.10;56.10;;;;;;6265712;22;20226;-66
2023/06/15 07:58:30;;;;;;;8.37;7.50;;;22.20;56.30;;;;;;6262836;22;20441;-66
2023/06/15 08:00:55;;;;;;;7.10;6.40;;;22.20;56.30;;;;;;6261802;22;20567;-66
2023/06/15 08:03:21;;;;;;;8.07;7.27;;;22.30;56.30;;;;;;6266232;22;20158;-66
2023/06/15 08:05:46;;;;;;;7.80;7.00;;;22.30;56.30;;;;;;6267326;22;20219;-66
2023/06/15 08:08:12;;;;;;;7.43;5.53;;;22.40;56.30;;;;;;6240581;22;20278;-66
2023/06/15 08:10:37;;;;;;;6.97;6.10;;;22.40;56.40;;;;;;6266926;22;20225;-66
2023/06/15 08:13:03;;;;;;;9.33;6.00;;;22.40;56.30;;;;;;6266152;22;20759;-66
2023/06/15 08:15:28;;;;;;;8.23;7.43;;;22.50;56.20;;;;;;6265065;22;20158;-66
2023/06/15 08:17:54;;;;;;;7.20;6.50;;;22.60;56.10;;;;;;6261507;22;20199;-66
2023/06/15 08:20:21;;;;;;;7.53;5.87;;;22.60;56.10;;;;;;6262129;22;20195;-66
2023/06/15 08:22:46;;;;;;;6.70;5.60;;;22.70;55.90;;;;;;6265697;22;20169;-66
2023/06/15 08:25:12;;;;;;;8.53;6.60;;;22.80;56.10;;;;;;6266872;22;21143;-66
2023/06/15 08:27:38;;;;;;;6.90;6.17;;;22.80;55.80;;;;;;6263828;22;20181;-66
2023/06/15 08:30:05;;;;;;;6.97;6.37;;;22.90;55.60;;;;;;6265361;22;20182;-66
2023/06/15 08:32:30;;;;;;;6.27;5.67;;;22.90;55.70;;;;;;6266141;22;20147;-66
2023/06/15 08:34:56;;;;;;;6.17;5.57;;;23.00;55.90;;;;;;6266183;22;20369;-66
2023/06/15 08:37:21;;;;;;;8.53;6.47;;;23.00;55.40;;;;;;6265346;22;20155;-66
2023/06/15 08:39:47;;;;;;;6.53;5.93;;;23.10;55.30;;;;;;6265073;22;20161;-66
2023/06/15 08:42:12;;;;;;;8.03;5.80;;;23.20;54.90;;;;;;6267693;22;20154;-66
2023/06/15 08:44:40;;;;;;;6.90;6.30;;;23.20;54.20;;;;;;6238244;22;20455;-66
2023/06/15 08:47:06;;;;;;;5.90;5.30;;;23.30;54.30;;;;;;6266391;22;20179;-66
2023/06/15 08:49:32;;;;;;;6.57;5.53;;;23.30;54.20;;;;;;6265388;22;20417;-66
2023/06/15 08:51:58;;;;;;;6.33;5.73;;;23.30;54.20;;;;;;6267374;22;20840;-67
2023/06/15 08:54:27;;;;;;;6.60;6.00;;;23.40;54.10;;;;;;6265452;22;20146;-67
2023/06/15 08:56:53;;;;;;;8.83;6.57;;;23.50;54.10;;;;;;6266359;22;20508;-66
2023/06/15 08:59:19;;;;;;;7.43;5.87;;;23.50;53.80;;;;;;6240312;22;20405;-67
2023/06/15 09:01:46;;;;;;;8.27;6.20;;;23.50;53.90;;;;;;6266448;22;20416;-66
2023/06/15 09:04:12;;;;;;;6.20;5.70;;;23.60;53.80;;;;;;6265756;22;20750;-67
2023/06/15 09:06:38;;;;;;;6.77;6.20;;;23.70;53.80;;;;;;6264084;22;20377;-67
2023/06/15 09:09:04;;;;;;;7.10;6.50;;;23.80;53.70;;;;;;6265863;22;20814;-66
2023/06/15 09:11:39;;;;;;;7.67;5.70;;;23.80;53.60;;;;;;6265742;22;20174;-66
2023/06/15 09:14:09;;;;;;;6.50;6.00;;;23.90;53.60;;;;;;6265063;22;20444;-66
2023/06/15 09:16:35;;;;;;;6.80;6.20;;;24.00;53.30;;;;;;6266416;22;20377;-66
2023/06/15 09:19:00;;;;;;;6.30;5.70;;;24.10;53.10;;;;;;6264999;22;20393;-66
2023/06/15 09:21:28;;;;;;;8.20;5.90;;;24.10;53.00;;;;;;6264632;22;20158;-66
2023/06/15 09:24:05;;;;;;;8.13;6.03;;;24.20;52.90;;;;;;6264308;22;20150;-66
2023/06/15 09:26:32;;;;;;;6.30;5.70;;;24.30;52.90;;;;;;6264580;22;20369;-66
2023/06/15 09:28:58;;;;;;;6.83;6.00;;;24.40;52.80;;;;;;6264642;22;20397;-66
2023/06/15 09:31:31;;;;;;;8.93;6.13;;;24.50;52.70;;;;;;6266376;22;20377;-66
2023/06/15 09:34:04;;;;;;;6.00;5.50;;;24.50;52.60;;;;;;6266255;22;20370;-66
2023/06/15 09:36:46;;;;;;;5.93;5.13;;;24.60;53.00;;;;;;6265846;22;20999;-67
2023/06/15 09:39:13;;;;;;;10.23;7.07;;;24.70;51.90;;;;;;6264418;22;21097;-66
2023/06/15 09:42:00;;;;;;;6.13;5.63;;;24.70;51.80;;;;;;6268965;22;20378;-65
2023/06/15 09:44:26;;;;;;;7.97;5.90;;;24.80;51.70;;;;;;6269933;22;20385;-65
2023/06/15 09:46:53;;;;;;;5.63;5.13;;;24.90;51.60;;;;;;6264904;22;20378;-65
2023/06/15 09:49:25;;;;;;;6.90;6.30;;;24.90;51.50;;;;;;6265023;22;20421;-65
2023/06/15 09:51:51;;;;;;;6.77;6.10;;;25.00;51.10;;;;;;6265338;22;20476;-66
2023/06/15 09:54:21;;;;;;;6.20;5.70;;;25.10;50.90;;;;;;6265130;22;20373;-65
2023/06/15 09:56:51;;;;;;;6.67;6.00;;;25.10;50.70;;;;;;6265205;22;20377;-65
2023/06/15 09:59:17;;;;;;;7.30;5.00;;;25.20;50.20;;;;;;6238478;22;20401;-65
2023/06/15 10:01:46;;;;;;;6.20;5.60;;;25.30;49.70;;;;;;6266326;22;20431;-66
2023/06/15 10:04:13;;;;;;;6.30;5.70;;;25.30;49.20;;;;;;6265887;22;20377;-65
2023/06/15 10:06:41;;;;;;;5.87;4.87;;;25.40;49.40;;;;;;6265209;22;20412;-65
2023/06/15 10:09:09;;;;;;;6.40;5.37;;;25.30;47.50;;;;;;6266187;22;20468;-66
2023/06/15 10:11:39;;;;;;;8.07;6.40;;;25.40;47.20;;;;;;6262754;22;20365;-66
2023/06/15 10:14:14;;;;;;;9.47;5.73;;;25.50;47.40;;;;;;6264625;22;20346;-65
2023/06/15 10:16:41;;;;;;;6.20;5.53;;;25.50;47.50;;;;;;6265639;22;20385;-65
2023/06/15 10:19:11;;;;;;;6.13;5.50;;;25.50;47.80;;;;;;6265271;22;20730;-66
2023/06/15 10:21:42;;;;;;;6.67;6.00;;;25.60;47.90;;;;;;6265574;22;20909;-65
2023/06/15 10:24:16;;;;;;;6.23;5.40;;;25.70;47.50;;;;;;6266768;22;20380;-65
2023/06/15 10:26:42;;;;;;;7.00;6.40;;;25.70;47.20;;;;;;6264700;22;20349;-65
2023/06/15 10:29:23;;;;;;;6.10;5.60;;;25.70;46.90;;;;;;6265746;22;20416;-67
2023/06/15 10:32:01;;;;;;;7.20;6.60;;;25.80;46.20;;;;;;6264028;22;20388;-66
2023/06/15 10:34:57;;;;;;;8.40;6.73;;;25.80;46.20;;;;;;6264480;22;20390;-66
2023/06/15 10:37:43;;;;;;;6.53;5.93;;;25.90;46.10;;;;;;6265927;22;20401;-67
2023/06/15 10:40:21;;;;;;;8.60;7.53;;;26.00;46.40;;;;;;6265668;22;20358;-67
2023/06/15 10:42:48;;;;;;;5.60;5.10;;;26.00;46.00;;;;;;6266332;22;20432;-67
2023/06/15 10:45:33;;;;;;;5.73;5.23;;;26.00;45.10;;;;;;6264779;22;20380;-66
2023/06/15 10:48:01;;;;;;;5.80;5.30;;;26.20;45.10;;;;;;6264643;22;20976;-66
2023/06/15 10:50:29;;;;;;;5.90;5.40;;;26.20;45.00;;;;;;6265963;22;20421;-66
2023/06/15 10:52:56;;;;;;;6.03;5.50;;;26.30;45.40;;;;;;6265638;22;20370;-66
2023/06/15 10:55:23;;;;;;;7.17;5.60;;;26.40;45.40;;;;;;6262932;22;20464;-66
2023/06/15 10:58:09;;;;;;;5.93;5.20;;;26.40;44.80;;;;;;6262709;22;20435;-66
2023/06/15 11:00:41;;;;;;;5.83;5.13;;;26.50;44.60;;;;;;6264942;22;20424;-66
2023/06/15 11:03:26;;;;;;;5.67;5.20;;;26.50;44.90;;;;;;6265270;22;20360;-66
2023/06/15 11:06:02;;;;;;;5.87;5.20;;;26.60;44.80;;;;;;6259521;22;20666;-66
2023/06/15 11:08:31;;;;;;;6.00;5.33;;;26.70;44.60;;;;;;6265381;22;20393;-66
2023/06/15 11:10:57;;;;;;;5.40;5.00;;;26.80;44.30;;;;;;6263563;22;20500;-67
2023/06/15 11:13:27;;;;;;;6.60;5.77;;;26.90;43.90;;;;;;6266374;22;20783;-67
2023/06/15 11:16:10;;;;;;;6.17;5.57;;;27.00;43.80;;;;;;6264177;22;20372;-67
2023/06/15 11:18:36;;;;;;;5.13;4.63;;;27.10;43.50;;;;;;6264777;22;20389;-67
2023/06/15 11:21:02;;;;;;;5.90;5.30;;;27.10;43.30;;;;;;6266838;22;20772;-67
2023/06/15 11:23:32;;;;;;;6.27;5.60;;;27.20;42.90;;;;;;6267038;22;20198;-67
2023/06/15 11:26:01;;;;;;;5.37;4.97;;;27.20;42.40;;;;;;6263312;22;20729;-67
2023/06/15 11:28:31;;;;;;;5.60;5.10;;;27.30;42.60;;;;;;6266507;22;20684;-66
2023/06/15 11:30:59;;;;;;;5.40;4.90;;;27.30;42.60;;;;;;6264354;22;20413;-67
2023/06/15 11:33:30;;;;;;;6.23;5.67;;;27.40;42.20;;;;;;6266138;22;20949;-66
2023/06/15 11:36:01;;;;;;;6.27;5.70;;;27.50;42.30;;;;;;6265166;22;20353;-66
2023/06/15 11:38:27;;;;;;;5.80;5.30;;;27.60;42.40;;;;;;6262284;22;20393;-67
2023/06/15 11:41:03;;;;;;;5.90;5.27;;;27.70;42.20;;;;;;6263669;22;20918;-66
2023/06/15 11:43:39;;;;;;;5.83;5.33;;;27.80;42.10;;;;;;6255846;22;20154;-66
2023/06/15 11:46:11;;;;;;;5.93;5.53;;;28.00;41.20;;;;;;6259203;22;20361;-66
2023/06/15 11:48:36;;;;;;;6.23;5.63;;;28.00;40.50;;;;;;6262516;22;20971;-67
2023/06/15 11:51:02;;;;;;;7.93;4.87;;;28.20;39.90;;;;;;6263802;22;20474;-67
2023/06/15 11:53:27;;;;;;;5.43;4.80;;;28.20;39.50;;;;;;6261670;22;20221;-66
2023/06/15 11:55:53;;;;;;;5.90;5.40;;;28.40;39.30;;;;;;6233700;22;20181;-67
2023/06/15 11:58:22;;;;;;;10.73;5.00;;;28.60;38.70;;;;;;6263468;22;20166;-66
2023/06/15 12:00:48;;;;;;;6.10;5.50;;;28.80;38.60;;;;;;6263660;22;20465;-66
2023/06/15 12:03:15;;;;;;;5.93;5.43;;;29.10;38.40;;;;;;6264388;22;21130;-67
2023/06/15 12:05:41;;;;;;;6.50;5.90;;;29.80;38.70;;;;;;6254718;22;20385;-66
2023/06/15 12:08:08;;;;;;;6.33;5.73;;;31.10;38.40;;;;;;6260618;22;20467;-66
2023/06/15 12:10:37;;;;;;;6.00;5.40;;;32.50;37.20;;;;;;6264382;22;20520;-67
2023/06/15 12:13:03;;;;;;;6.20;5.60;;;33.40;36.00;;;;;;6263968;22;20424;-66
2023/06/15 12:15:29;;;;;;;6.00;5.50;;;33.20;35.50;;;;;;6262366;22;20377;-64
2023/06/15 12:17:56;;;;;;;5.90;5.30;;;33.20;35.60;;;;;;6263479;22;20258;-66
2023/06/15 12:20:27;;;;;;;5.20;4.70;;;32.60;34.20;;;;;;6261419;22;20154;-66
2023/06/15 12:22:52;;;;;;;6.60;6.00;;;32.30;34.80;;;;;;6262406;22;20351;-67
2023/06/15 12:25:18;;;;;;;5.80;5.30;;;32.70;35.70;;;;;;6264364;22;20366;-66
2023/06/15 12:27:45;;;;;;;5.90;4.93;;;33.20;34.40;;;;;;6261464;22;20178;-67
2023/06/15 12:30:12;;;;;;;8.10;4.83;;;33.50;34.20;;;;;;6264378;22;20361;-66
2023/06/15 12:32:50;;;;;;;9.23;5.40;;;33.20;33.20;;;;;;6263097;22;20389;-66
2023/06/15 12:35:32;;;;;;;5.30;4.90;;;32.40;33.60;;;;;;6263023;22;20430;-66
2023/06/15 12:37:57;;;;;;;5.00;4.60;;;31.80;34.30;;;;;;6262896;22;20678;-66
2023/06/15 12:40:23;;;;;;;5.47;5.07;;;31.40;35.10;;;;;;6263249;22;20379;-66
2023/06/15 12:43:16;;;;;;;5.47;5.07;;;31.60;35.80;;;;;;6260601;22;20189;-66
2023/06/15 12:45:42;;;;;;;6.60;5.87;;;31.90;35.70;;;;;;6257093;22;20154;-66
2023/06/15 12:48:08;;;;;;;6.13;5.63;;;31.70;34.90;;;;;;6262113;22;20485;-66